sensor_id;sensor_type;location;lat;lon;timestamp;P1;durP1;ratioP1;P2;durP2;ratioP2
7215;SDS011;3649;48.798;9.798;2022-11-20T00:01:15;5.47;;;5.03;;
7215;SDS011;3649;48.798;9.798;2022-11-20T00:03:43;7.00;;;6.30;;
7215;SDS011;3649;48.798;9.798;2022-11-20T00:06:12;7.87;;;5.73;;
7215;SDS011;3649;48.798;9.798;2022-11-20T00:08:40;5.80;;;5.20;;
7215;SDS011;3649;48.798;9.798;2022-11-20T00:11:17;9.17;;;6.07;;
7215;SDS011;3649;48.798;9.798;2022-11-20T00:13:47;6.37;;;5.77;;
7215;SDS011;3649;48.798;9.798;2022-11-20T00:16:16;7.13;;;6.43;;
7215;SDS011;3649;48.798;9.798;2022-11-20T00:18:44;7.50;;;6.77;;
7215;SDS011;3649;48.798;9.798;2022-11-20T00:21:13;7.50;;;6.50;;
7215;SDS011;3649;48.798;9.798;2022-11-20T00:23:47;7.30;;;6.70;;
7215;SDS011;3649;48.798;9.798;2022-11-20T00:26:16;7.97;;;5.73;;
7215;SDS011;3649;48.798;9.798;2022-11-20T00:28:49;6.00;;;5.50;;
7215;SDS011;3649;48.798;9.798;2022-11-20T00:31:17;6.80;;;5.53;;
7215;SDS011;3649;48.798;9.798;2022-11-20T00:33:44;5.50;;;4.67;;
7215;SDS011;3649;48.798;9.798;2022-11-20T00:36:19;5.57;;;5.07;;
7215;SDS011;3649;48.798;9.798;2022-11-20T00:38:50;5.13;;;4.63;;
7215;SDS011;3649;48.798;9.798;2022-11-20T00:41:18;4.93;;;4.53;;
7215;SDS011;3649;48.798;9.798;2022-11-20T00:43:45;5.37;;;4.97;;
7215;SDS011;3649;48.798;9.798;2022-11-20T00:46:15;9.57;;;5.00;;
7215;SDS011;3649;48.798;9.798;2022-11-20T00:48:44;7.30;;;6.60;;
7215;SDS011;3649;48.798;9.798;2022-11-20T00:51:12;7.20;;;6.60;;
7215;SDS011;3649;48.798;9.798;2022-11-20T00:53:40;7.40;;;5.90;;
7215;SDS011;3649;48.798;9.798;2022-11-20T00:56:09;6.60;;;5.63;;
7215;SDS011;3649;48.798;9.798;2022-11-20T00:58:39;6.97;;;6.37;;
7215;SDS011;3649;48.798;9.798;2022-11-20T01:01:09;7.80;;;5.70;;
7215;SDS011;3649;48.798;9.798;2022-11-20T01:03:42;6.70;;;5.63;;
7215;SDS011;3649;48.798;9.798;2022-11-20T01:06:20;8.10;;;6.00;;
7215;SDS011;3649;48.798;9.798;2022-11-20T01:08:52;6.83;;;6.17;;
7215;SDS011;3649;48.798;9.798;2022-11-20T01:11:22;8.17;;;7.43;;
7215;SDS011;3649;48.798;9.798;2022-11-20T01:13:51;6.90;;;6.17;;
7215;SDS011;3649;48.798;9.798;2022-11-20T01:16:19;7.53;;;4.90;;
7215;SDS011;3649;48.798;9.798;2022-11-20T01:18:49;5.20;;;4.73;;
7215;SDS011;3649;48.798;9.798;2022-11-20T01:21:22;4.80;;;4.40;;
7215;SDS011;3649;48.798;9.798;2022-11-20T01:23:54;4.73;;;4.27;;
7215;SDS011;3649;48.798;9.798;2022-11-20T01:26:22;4.33;;;3.93;;
7215;SDS011;3649;48.798;9.798;2022-11-20T01:28:50;5.20;;;4.70;;
7215;SDS011;3649;48.798;9.798;2022-11-20T01:31:24;4.83;;;4.27;;
7215;SDS011;3649;48.798;9.798;2022-11-20T01:33:54;4.93;;;4.50;;
7215;SDS011;3649;48.798;9.798;2022-11-20T01:36:24;5.40;;;4.23;;
7215;SDS011;3649;48.798;9.798;2022-11-20T01:38:53;4.23;;;3.67;;
7215;SDS011;3649;48.798;9.798;2022-11-20T01:41:22;4.40;;;4.10;;
7215;SDS011;3649;48.798;9.798;2022-11-20T01:44:10;4.20;;;3.90;;
7215;SDS011;3649;48.798;9.798;2022-11-20T01:49:37;3.87;;;3.47;;
7215;SDS011;3649;48.798;9.798;2022-11-20T01:54:48;5.00;;;3.60;;
7215;SDS011;3649;48.798;9.798;2022-11-20T01:57:22;5.07;;;3.77;;
7215;SDS011;3649;48.798;9.798;2022-11-20T01:59:52;4.47;;;3.57;;
7215;SDS011;3649;48.798;9.798;2022-11-20T02:02:25;3.97;;;3.67;;
7215;SDS011;3649;48.798;9.798;2022-11-20T02:04:52;3.80;;;3.60;;
7215;SDS011;3649;48.798;9.798;2022-11-20T02:07:22;4.00;;;3.70;;
7215;SDS011;3649;48.798;9.798;2022-11-20T02:09:50;4.07;;;3.77;;
7215;SDS011;3649;48.798;9.798;2022-11-20T02:12:23;3.47;;;3.20;;
7215;SDS011;3649;48.798;9.798;2022-11-20T02:15:09;3.40;;;3.10;;
7215;SDS011;3649;48.798;9.798;2022-11-20T02:17:36;3.80;;;3.40;;
7215;SDS011;3649;48.798;9.798;2022-11-20T02:20:03;3.37;;;3.17;;
7215;SDS011;3649;48.798;9.798;2022-11-20T02:22:32;3.70;;;3.40;;
7215;SDS011;3649;48.798;9.798;2022-11-20T02:25:04;3.90;;;3.60;;
7215;SDS011;3649;48.798;9.798;2022-11-20T02:27:33;9.00;;;3.57;;
7215;SDS011;3649;48.798;9.798;2022-11-20T02:30:01;5.43;;;3.77;;
7215;SDS011;3649;48.798;9.798;2022-11-20T02:32:34;6.90;;;3.37;;
7215;SDS011;3649;48.798;9.798;2022-11-20T02:35:08;3.83;;;3.30;;
7215;SDS011;3649;48.798;9.798;2022-11-20T02:37:45;4.67;;;3.60;;
7215;SDS011;3649;48.798;9.798;2022-11-20T02:40:14;4.47;;;3.70;;
7215;SDS011;3649;48.798;9.798;2022-11-20T02:42:41;3.40;;;3.20;;
7215;SDS011;3649;48.798;9.798;2022-11-20T02:45:08;3.10;;;2.90;;
7215;SDS011;3649;48.798;9.798;2022-11-20T02:47:35;3.73;;;3.47;;
7215;SDS011;3649;48.798;9.798;2022-11-20T02:50:03;3.57;;;3.30;;
7215;SDS011;3649;48.798;9.798;2022-11-20T02:52:31;4.10;;;3.10;;
7215;SDS011;3649;48.798;9.798;2022-11-20T02:54:57;3.30;;;3.10;;
7215;SDS011;3649;48.798;9.798;2022-11-20T02:57:24;3.27;;;2.90;;
7215;SDS011;3649;48.798;9.798;2022-11-20T02:59:51;3.87;;;3.23;;
7215;SDS011;3649;48.798;9.798;2022-11-20T03:02:18;3.77;;;3.40;;
7215;SDS011;3649;48.798;9.798;2022-11-20T03:04:44;3.50;;;3.20;;
7215;SDS011;3649;48.798;9.798;2022-11-20T03:07:11;3.97;;;3.57;;
7215;SDS011;3649;48.798;9.798;2022-11-20T03:09:38;3.87;;;3.57;;
7215;SDS011;3649;48.798;9.798;2022-11-20T03:12:05;6.00;;;3.70;;
7215;SDS011;3649;48.798;9.798;2022-11-20T03:14:32;3.80;;;3.50;;
7215;SDS011;3649;48.798;9.798;2022-11-20T03:16:59;3.43;;;3.13;;
7215;SDS011;3649;48.798;9.798;2022-11-20T03:19:26;3.50;;;3.30;;
7215;SDS011;3649;48.798;9.798;2022-11-20T03:21:53;3.43;;;3.20;;
7215;SDS011;3649;48.798;9.798;2022-11-20T03:24:20;3.90;;;3.60;;
7215;SDS011;3649;48.798;9.798;2022-11-20T03:26:47;5.47;;;3.70;;
7215;SDS011;3649;48.798;9.798;2022-11-20T03:29:14;4.67;;;3.50;;
7215;SDS011;3649;48.798;9.798;2022-11-20T03:31:41;3.50;;;3.20;;
7215;SDS011;3649;48.798;9.798;2022-11-20T03:34:08;3.33;;;3.13;;
7215;SDS011;3649;48.798;9.798;2022-11-20T03:36:37;3.90;;;3.50;;
7215;SDS011;3649;48.798;9.798;2022-11-20T03:39:07;3.60;;;3.30;;
7215;SDS011;3649;48.798;9.798;2022-11-20T03:41:36;5.07;;;3.30;;
7215;SDS011;3649;48.798;9.798;2022-11-20T03:44:05;3.53;;;3.23;;
7215;SDS011;3649;48.798;9.798;2022-11-20T03:46:33;4.17;;;3.73;;
7215;SDS011;3649;48.798;9.798;2022-11-20T03:49:00;3.30;;;3.10;;
7215;SDS011;3649;48.798;9.798;2022-11-20T03:51:28;4.27;;;3.53;;
7215;SDS011;3649;48.798;9.798;2022-11-20T03:53:58;3.93;;;3.53;;
7215;SDS011;3649;48.798;9.798;2022-11-20T03:56:27;4.97;;;3.43;;
7215;SDS011;3649;48.798;9.798;2022-11-20T03:58:56;8.00;;;3.60;;
7215;SDS011;3649;48.798;9.798;2022-11-20T04:01:30;3.57;;;3.27;;
7215;SDS011;3649;48.798;9.798;2022-11-20T04:03:58;4.70;;;3.10;;
7215;SDS011;3649;48.798;9.798;2022-11-20T04:06:27;3.67;;;3.37;;
7215;SDS011;3649;48.798;9.798;2022-11-20T04:08:55;3.83;;;3.03;;
7215;SDS011;3649;48.798;9.798;2022-11-20T04:11:24;4.03;;;3.73;;
7215;SDS011;3649;48.798;9.798;2022-11-20T04:13:53;3.93;;;3.53;;
7215;SDS011;3649;48.798;9.798;2022-11-20T04:16:24;3.50;;;3.30;;
7215;SDS011;3649;48.798;9.798;2022-11-20T04:18:53;3.73;;;3.53;;
7215;SDS011;3649;48.798;9.798;2022-11-20T04:21:21;3.33;;;3.07;;
7215;SDS011;3649;48.798;9.798;2022-11-20T04:23:49;3.73;;;3.43;;
7215;SDS011;3649;48.798;9.798;2022-11-20T04:26:16;3.70;;;3.40;;
7215;SDS011;3649;48.798;9.798;2022-11-20T04:28:43;3.80;;;3.50;;
7215;SDS011;3649;48.798;9.798;2022-11-20T04:31:11;3.60;;;3.30;;
7215;SDS011;3649;48.798;9.798;2022-11-20T04:33:40;3.80;;;3.40;;
7215;SDS011;3649;48.798;9.798;2022-11-20T04:36:09;3.50;;;3.20;;
7215;SDS011;3649;48.798;9.798;2022-11-20T04:38:42;3.67;;;3.37;;
7215;SDS011;3649;48.798;9.798;2022-11-20T04:41:15;3.57;;;3.33;;
7215;SDS011;3649;48.798;9.798;2022-11-20T04:43:46;3.73;;;3.40;;
7215;SDS011;3649;48.798;9.798;2022-11-20T04:46:15;3.80;;;3.50;;
7215;SDS011;3649;48.798;9.798;2022-11-20T04:48:43;3.57;;;3.30;;
7215;SDS011;3649;48.798;9.798;2022-11-20T04:51:10;3.90;;;3.60;;
7215;SDS011;3649;48.798;9.798;2022-11-20T04:53:37;4.47;;;3.47;;
7215;SDS011;3649;48.798;9.798;2022-11-20T04:56:05;3.43;;;3.17;;
7215;SDS011;3649;48.798;9.798;2022-11-20T04:58:34;3.70;;;3.40;;
7215;SDS011;3649;48.798;9.798;2022-11-20T05:01:02;3.37;;;3.07;;
7215;SDS011;3649;48.798;9.798;2022-11-20T05:03:43;3.57;;;3.27;;
7215;SDS011;3649;48.798;9.798;2022-11-20T05:06:12;3.27;;;3.07;;
7215;SDS011;3649;48.798;9.798;2022-11-20T05:08:39;3.27;;;2.97;;
7215;SDS011;3649;48.798;9.798;2022-11-20T05:11:08;3.90;;;3.43;;
7215;SDS011;3649;48.798;9.798;2022-11-20T05:13:36;3.90;;;3.60;;
7215;SDS011;3649;48.798;9.798;2022-11-20T05:16:05;4.07;;;3.30;;
7215;SDS011;3649;48.798;9.798;2022-11-20T05:18:34;3.50;;;3.20;;
7215;SDS011;3649;48.798;9.798;2022-11-20T05:21:01;3.40;;;3.20;;
7215;SDS011;3649;48.798;9.798;2022-11-20T05:23:29;3.40;;;3.20;;
7215;SDS011;3649;48.798;9.798;2022-11-20T05:25:57;3.40;;;3.10;;
7215;SDS011;3649;48.798;9.798;2022-11-20T05:28:25;3.77;;;3.40;;
7215;SDS011;3649;48.798;9.798;2022-11-20T05:30:53;3.10;;;2.87;;
7215;SDS011;3649;48.798;9.798;2022-11-20T05:33:20;4.20;;;3.10;;
7215;SDS011;3649;48.798;9.798;2022-11-20T05:35:48;3.13;;;2.93;;
7215;SDS011;3649;48.798;9.798;2022-11-20T05:38:15;8.10;;;3.50;;
7215;SDS011;3649;48.798;9.798;2022-11-20T05:40:42;5.23;;;3.03;;
7215;SDS011;3649;48.798;9.798;2022-11-20T05:43:09;2.93;;;2.73;;
7215;SDS011;3649;48.798;9.798;2022-11-20T05:45:36;3.60;;;3.30;;
7215;SDS011;3649;48.798;9.798;2022-11-20T05:48:03;2.87;;;2.67;;
7215;SDS011;3649;48.798;9.798;2022-11-20T05:50:29;2.90;;;2.70;;
7215;SDS011;3649;48.798;9.798;2022-11-20T05:52:59;3.50;;;3.20;;
7215;SDS011;3649;48.798;9.798;2022-11-20T05:55:27;3.20;;;3.00;;
7215;SDS011;3649;48.798;9.798;2022-11-20T05:57:54;2.87;;;2.67;;
7215;SDS011;3649;48.798;9.798;2022-11-20T06:00:21;3.23;;;2.93;;
7215;SDS011;3649;48.798;9.798;2022-11-20T06:02:48;3.23;;;3.00;;
7215;SDS011;3649;48.798;9.798;2022-11-20T06:05:15;3.67;;;3.13;;
7215;SDS011;3649;48.798;9.798;2022-11-20T06:07:42;3.63;;;3.33;;
7215;SDS011;3649;48.798;9.798;2022-11-20T06:10:09;2.70;;;2.50;;
7215;SDS011;3649;48.798;9.798;2022-11-20T06:12:36;3.07;;;2.87;;
7215;SDS011;3649;48.798;9.798;2022-11-20T06:15:03;2.87;;;2.67;;
7215;SDS011;3649;48.798;9.798;2022-11-20T06:17:31;5.67;;;2.57;;
7215;SDS011;3649;48.798;9.798;2022-11-20T06:19:58;3.33;;;3.07;;
7215;SDS011;3649;48.798;9.798;2022-11-20T06:22:24;5.97;;;3.27;;
7215;SDS011;3649;48.798;9.798;2022-11-20T06:24:51;2.77;;;2.57;;
7215;SDS011;3649;48.798;9.798;2022-11-20T06:27:18;2.50;;;2.40;;
7215;SDS011;3649;48.798;9.798;2022-11-20T06:29:45;4.90;;;2.50;;
7215;SDS011;3649;48.798;9.798;2022-11-20T06:32:12;4.93;;;2.90;;
7215;SDS011;3649;48.798;9.798;2022-11-20T06:34:38;3.13;;;2.93;;
7215;SDS011;3649;48.798;9.798;2022-11-20T06:37:05;2.87;;;2.40;;
7215;SDS011;3649;48.798;9.798;2022-11-20T06:39:32;2.50;;;2.30;;
7215;SDS011;3649;48.798;9.798;2022-11-20T06:41:59;3.27;;;2.60;;
7215;SDS011;3649;48.798;9.798;2022-11-20T06:44:26;2.70;;;2.17;;
7215;SDS011;3649;48.798;9.798;2022-11-20T06:46:52;2.30;;;2.20;;
7215;SDS011;3649;48.798;9.798;2022-11-20T06:49:19;2.47;;;2.27;;
7215;SDS011;3649;48.798;9.798;2022-11-20T06:51:46;2.50;;;2.30;;
7215;SDS011;3649;48.798;9.798;2022-11-20T06:54:13;2.60;;;2.43;;
7215;SDS011;3649;48.798;9.798;2022-11-20T06:56:40;2.03;;;1.93;;
7215;SDS011;3649;48.798;9.798;2022-11-20T06:59:07;2.33;;;2.23;;
7215;SDS011;3649;48.798;9.798;2022-11-20T07:01:34;2.40;;;2.20;;
7215;SDS011;3649;48.798;9.798;2022-11-20T07:04:01;3.87;;;2.53;;
7215;SDS011;3649;48.798;9.798;2022-11-20T07:06:29;2.17;;;1.97;;
7215;SDS011;3649;48.798;9.798;2022-11-20T07:08:56;2.10;;;2.00;;
7215;SDS011;3649;48.798;9.798;2022-11-20T07:11:23;2.20;;;2.10;;
7215;SDS011;3649;48.798;9.798;2022-11-20T07:13:51;4.30;;;2.30;;
7215;SDS011;3649;48.798;9.798;2022-11-20T07:16:18;2.40;;;2.20;;
7215;SDS011;3649;48.798;9.798;2022-11-20T07:18:44;2.60;;;2.40;;
7215;SDS011;3649;48.798;9.798;2022-11-20T07:21:16;2.10;;;2.00;;
7215;SDS011;3649;48.798;9.798;2022-11-20T07:23:43;2.63;;;2.10;;
7215;SDS011;3649;48.798;9.798;2022-11-20T07:26:10;2.53;;;2.33;;
7215;SDS011;3649;48.798;9.798;2022-11-20T07:28:37;1.90;;;1.80;;
7215;SDS011;3649;48.798;9.798;2022-11-20T07:31:04;2.13;;;2.03;;
7215;SDS011;3649;48.798;9.798;2022-11-20T07:33:33;2.47;;;2.27;;
7215;SDS011;3649;48.798;9.798;2022-11-20T07:36:00;2.33;;;2.23;;
7215;SDS011;3649;48.798;9.798;2022-11-20T07:38:27;4.73;;;2.40;;
7215;SDS011;3649;48.798;9.798;2022-11-20T07:40:54;2.50;;;2.30;;
7215;SDS011;3649;48.798;9.798;2022-11-20T07:43:23;2.77;;;2.50;;
7215;SDS011;3649;48.798;9.798;2022-11-20T07:45:51;2.20;;;2.10;;
7215;SDS011;3649;48.798;9.798;2022-11-20T07:48:18;2.60;;;2.10;;
7215;SDS011;3649;48.798;9.798;2022-11-20T07:50:45;2.33;;;2.17;;
7215;SDS011;3649;48.798;9.798;2022-11-20T07:53:11;2.30;;;2.10;;
7215;SDS011;3649;48.798;9.798;2022-11-20T07:55:40;2.30;;;2.10;;
7215;SDS011;3649;48.798;9.798;2022-11-20T07:58:06;2.27;;;2.17;;
7215;SDS011;3649;48.798;9.798;2022-11-20T08:00:33;2.37;;;2.27;;
7215;SDS011;3649;48.798;9.798;2022-11-20T08:03:02;3.20;;;2.30;;
7215;SDS011;3649;48.798;9.798;2022-11-20T08:05:32;2.97;;;2.40;;
7215;SDS011;3649;48.798;9.798;2022-11-20T08:07:59;2.43;;;2.23;;
7215;SDS011;3649;48.798;9.798;2022-11-20T08:10:26;2.10;;;2.00;;
7215;SDS011;3649;48.798;9.798;2022-11-20T08:12:53;2.30;;;2.20;;
7215;SDS011;3649;48.798;9.798;2022-11-20T08:15:39;2.63;;;2.37;;
7215;SDS011;3649;48.798;9.798;2022-11-20T08:18:07;3.13;;;2.30;;
7215;SDS011;3649;48.798;9.798;2022-11-20T08:20:56;2.10;;;2.00;;
7215;SDS011;3649;48.798;9.798;2022-11-20T08:23:23;2.70;;;2.13;;
7215;SDS011;3649;48.798;9.798;2022-11-20T08:25:50;2.13;;;2.03;;
7215;SDS011;3649;48.798;9.798;2022-11-20T08:28:17;2.67;;;2.43;;
7215;SDS011;3649;48.798;9.798;2022-11-20T08:30:47;2.63;;;2.40;;
7215;SDS011;3649;48.798;9.798;2022-11-20T08:33:14;3.10;;;2.40;;
7215;SDS011;3649;48.798;9.798;2022-11-20T08:35:44;2.07;;;1.97;;
7215;SDS011;3649;48.798;9.798;2022-11-20T08:38:16;2.83;;;2.17;;
7215;SDS011;3649;48.798;9.798;2022-11-20T08:40:43;2.17;;;2.00;;
7215;SDS011;3649;48.798;9.798;2022-11-20T08:43:33;4.97;;;2.10;;
7215;SDS011;3649;48.798;9.798;2022-11-20T08:45:59;3.17;;;2.47;;
7215;SDS011;3649;48.798;9.798;2022-11-20T08:48:26;2.07;;;1.97;;
7215;SDS011;3649;48.798;9.798;2022-11-20T08:50:53;2.00;;;1.90;;
7215;SDS011;3649;48.798;9.798;2022-11-20T08:53:23;2.17;;;2.03;;
7215;SDS011;3649;48.798;9.798;2022-11-20T08:55:50;2.80;;;2.50;;
7215;SDS011;3649;48.798;9.798;2022-11-20T08:58:16;2.50;;;2.30;;
7215;SDS011;3649;48.798;9.798;2022-11-20T09:00:43;2.30;;;2.20;;
7215;SDS011;3649;48.798;9.798;2022-11-20T09:03:10;2.50;;;2.30;;
7215;SDS011;3649;48.798;9.798;2022-11-20T09:05:39;1.93;;;1.83;;
7215;SDS011;3649;48.798;9.798;2022-11-20T09:08:06;2.10;;;2.00;;
7215;SDS011;3649;48.798;9.798;2022-11-20T09:10:32;3.60;;;2.27;;
7215;SDS011;3649;48.798;9.798;2022-11-20T09:13:00;2.40;;;2.20;;
7215;SDS011;3649;48.798;9.798;2022-11-20T09:15:28;2.53;;;2.30;;
7215;SDS011;3649;48.798;9.798;2022-11-20T09:17:56;2.13;;;2.03;;
7215;SDS011;3649;48.798;9.798;2022-11-20T09:20:25;2.40;;;2.20;;
7215;SDS011;3649;48.798;9.798;2022-11-20T09:22:55;2.13;;;2.03;;
7215;SDS011;3649;48.798;9.798;2022-11-20T09:25:22;2.30;;;2.20;;
7215;SDS011;3649;48.798;9.798;2022-11-20T09:27:54;2.37;;;2.17;;
7215;SDS011;3649;48.798;9.798;2022-11-20T09:30:22;2.50;;;2.40;;
7215;SDS011;3649;48.798;9.798;2022-11-20T09:32:49;2.27;;;1.97;;
7215;SDS011;3649;48.798;9.798;2022-11-20T09:35:16;3.60;;;2.43;;
7215;SDS011;3649;48.798;9.798;2022-11-20T09:37:44;2.07;;;1.97;;
7215;SDS011;3649;48.798;9.798;2022-11-20T09:40:21;2.00;;;1.90;;
7215;SDS011;3649;48.798;9.798;2022-11-20T09:57:22;2.10;;;1.90;;
7215;SDS011;3649;48.798;9.798;2022-11-20T09:59:58;2.30;;;2.10;;
7215;SDS011;3649;48.798;9.798;2022-11-20T10:02:29;2.47;;;2.00;;
7215;SDS011;3649;48.798;9.798;2022-11-20T10:07:36;1.87;;;1.77;;
7215;SDS011;3649;48.798;9.798;2022-11-20T10:10:15;4.20;;;3.50;;
7215;SDS011;3649;48.798;9.798;2022-11-20T10:29:32;1.83;;;1.73;;
7215;SDS011;3649;48.798;9.798;2022-11-20T10:32:01;1.90;;;1.80;;
7215;SDS011;3649;48.798;9.798;2022-11-20T10:34:36;2.73;;;1.93;;
7215;SDS011;3649;48.798;9.798;2022-11-20T10:37:17;2.10;;;2.00;;
7215;SDS011;3649;48.798;9.798;2022-11-20T10:42:42;1.83;;;1.73;;
7215;SDS011;3649;48.798;9.798;2022-11-20T10:45:19;1.90;;;1.80;;
7215;SDS011;3649;48.798;9.798;2022-11-20T10:47:54;2.27;;;2.00;;
7215;SDS011;3649;48.798;9.798;2022-11-20T10:50:34;3.30;;;2.00;;
7215;SDS011;3649;48.798;9.798;2022-11-20T10:53:08;2.00;;;1.90;;
7215;SDS011;3649;48.798;9.798;2022-11-20T10:55:55;1.93;;;1.83;;
7215;SDS011;3649;48.798;9.798;2022-11-20T10:58:35;2.37;;;2.00;;
7215;SDS011;3649;48.798;9.798;2022-11-20T11:01:17;2.17;;;2.07;;
7215;SDS011;3649;48.798;9.798;2022-11-20T11:03:45;1.80;;;1.70;;
7215;SDS011;3649;48.798;9.798;2022-11-20T11:06:24;2.70;;;2.40;;
7215;SDS011;3649;48.798;9.798;2022-11-20T11:09:10;2.63;;;2.43;;
7215;SDS011;3649;48.798;9.798;2022-11-20T11:11:43;2.30;;;2.00;;
7215;SDS011;3649;48.798;9.798;2022-11-20T11:14:12;2.43;;;2.00;;
7215;SDS011;3649;48.798;9.798;2022-11-20T11:16:50;2.33;;;2.20;;
7215;SDS011;3649;48.798;9.798;2022-11-20T11:19:21;2.93;;;2.20;;
7215;SDS011;3649;48.798;9.798;2022-11-20T11:21:52;2.53;;;2.30;;
7215;SDS011;3649;48.798;9.798;2022-11-20T11:24:25;3.30;;;2.80;;
7215;SDS011;3649;48.798;9.798;2022-11-20T11:27:12;2.50;;;2.30;;
7215;SDS011;3649;48.798;9.798;2022-11-20T11:29:44;3.20;;;2.80;;
7215;SDS011;3649;48.798;9.798;2022-11-20T11:32:12;2.47;;;2.27;;
7215;SDS011;3649;48.798;9.798;2022-11-20T11:34:41;2.87;;;2.67;;
7215;SDS011;3649;48.798;9.798;2022-11-20T11:37:19;2.50;;;2.30;;
7215;SDS011;3649;48.798;9.798;2022-11-20T11:39:50;2.53;;;2.30;;
7215;SDS011;3649;48.798;9.798;2022-11-20T11:42:44;3.20;;;3.00;;
7215;SDS011;3649;48.798;9.798;2022-11-20T11:45:18;3.00;;;2.20;;
7215;SDS011;3649;48.798;9.798;2022-11-20T11:47:46;2.97;;;2.47;;
7215;SDS011;3649;48.798;9.798;2022-11-20T11:50:15;2.30;;;2.20;;
7215;SDS011;3649;48.798;9.798;2022-11-20T11:53:05;2.57;;;2.30;;
7215;SDS011;3649;48.798;9.798;2022-11-20T12:01:02;3.03;;;2.20;;
7215;SDS011;3649;48.798;9.798;2022-11-20T12:03:40;1.80;;;1.80;;
7215;SDS011;3649;48.798;9.798;2022-11-20T12:06:14;2.23;;;1.73;;
7215;SDS011;3649;48.798;9.798;2022-11-20T12:16:24;2.97;;;2.67;;
7215;SDS011;3649;48.798;9.798;2022-11-20T12:18:52;2.30;;;2.20;;
7215;SDS011;3649;48.798;9.798;2022-11-20T12:24:05;2.00;;;1.90;;
7215;SDS011;3649;48.798;9.798;2022-11-20T12:46:15;1.90;;;1.80;;
7215;SDS011;3649;48.798;9.798;2022-11-20T12:57:23;2.27;;;2.07;;
7215;SDS011;3649;48.798;9.798;2022-11-20T13:00:12;1.97;;;1.87;;
7215;SDS011;3649;48.798;9.798;2022-11-20T13:03:03;2.53;;;2.33;;
7215;SDS011;3649;48.798;9.798;2022-11-20T13:08:09;2.47;;;2.37;;
7215;SDS011;3649;48.798;9.798;2022-11-20T13:13:22;2.20;;;1.87;;
7215;SDS011;3649;48.798;9.798;2022-11-20T13:19:02;2.07;;;1.97;;
7215;SDS011;3649;48.798;9.798;2022-11-20T13:21:40;2.37;;;2.17;;
7215;SDS011;3649;48.798;9.798;2022-11-20T13:26:46;2.33;;;2.13;;
7215;SDS011;3649;48.798;9.798;2022-11-20T13:29:17;2.53;;;2.17;;
7215;SDS011;3649;48.798;9.798;2022-11-20T13:31:45;2.23;;;2.13;;
7215;SDS011;3649;48.798;9.798;2022-11-20T13:34:22;2.60;;;2.10;;
7215;SDS011;3649;48.798;9.798;2022-11-20T13:36:52;2.00;;;1.90;;
7215;SDS011;3649;48.798;9.798;2022-11-20T13:39:27;2.53;;;2.33;;
7215;SDS011;3649;48.798;9.798;2022-11-20T13:41:56;2.67;;;2.33;;
7215;SDS011;3649;48.798;9.798;2022-11-20T13:46:54;3.23;;;2.97;;
7215;SDS011;3649;48.798;9.798;2022-11-20T14:01:08;2.40;;;2.30;;
7215;SDS011;3649;48.798;9.798;2022-11-20T14:03:40;3.50;;;3.20;;
7215;SDS011;3649;48.798;9.798;2022-11-20T14:06:28;2.20;;;2.10;;
7215;SDS011;3649;48.798;9.798;2022-11-20T14:08:58;3.17;;;2.90;;
7215;SDS011;3649;48.798;9.798;2022-11-20T14:11:27;3.77;;;3.10;;
7215;SDS011;3649;48.798;9.798;2022-11-20T14:16:26;2.50;;;2.30;;
7215;SDS011;3649;48.798;9.798;2022-11-20T14:18:54;3.90;;;2.10;;
7215;SDS011;3649;48.798;9.798;2022-11-20T14:21:23;2.43;;;2.13;;
7215;SDS011;3649;48.798;9.798;2022-11-20T14:24:04;3.73;;;2.30;;
7215;SDS011;3649;48.798;9.798;2022-11-20T14:26:32;3.23;;;2.17;;
7215;SDS011;3649;48.798;9.798;2022-11-20T14:29:00;2.30;;;2.10;;
7215;SDS011;3649;48.798;9.798;2022-11-20T14:31:27;3.97;;;2.43;;
7215;SDS011;3649;48.798;9.798;2022-11-20T14:33:54;2.50;;;2.30;;
7215;SDS011;3649;48.798;9.798;2022-11-20T14:36:23;2.73;;;2.13;;
7215;SDS011;3649;48.798;9.798;2022-11-20T14:38:51;2.27;;;2.07;;
7215;SDS011;3649;48.798;9.798;2022-11-20T14:41:20;2.57;;;2.37;;
7215;SDS011;3649;48.798;9.798;2022-11-20T14:46:25;3.77;;;2.60;;
7215;SDS011;3649;48.798;9.798;2022-11-20T14:48:54;2.43;;;2.13;;
7215;SDS011;3649;48.798;9.798;2022-11-20T14:51:27;1.63;;;1.53;;
7215;SDS011;3649;48.798;9.798;2022-11-20T14:54:17;3.20;;;2.10;;
7215;SDS011;3649;48.798;9.798;2022-11-20T14:56:57;4.30;;;1.80;;
7215;SDS011;3649;48.798;9.798;2022-11-20T14:59:30;4.80;;;2.23;;
7215;SDS011;3649;48.798;9.798;2022-11-20T15:02:01;2.60;;;2.40;;
7215;SDS011;3649;48.798;9.798;2022-11-20T15:04:30;2.00;;;1.90;;
7215;SDS011;3649;48.798;9.798;2022-11-20T15:06:58;5.47;;;4.37;;
7215;SDS011;3649;48.798;9.798;2022-11-20T15:09:27;5.63;;;2.27;;
7215;SDS011;3649;48.798;9.798;2022-11-20T15:11:55;3.47;;;2.20;;
7215;SDS011;3649;48.798;9.798;2022-11-20T15:14:24;2.90;;;2.17;;
7215;SDS011;3649;48.798;9.798;2022-11-20T15:16:52;2.40;;;2.27;;
7215;SDS011;3649;48.798;9.798;2022-11-20T15:19:21;2.83;;;2.63;;
7215;SDS011;3649;48.798;9.798;2022-11-20T15:21:49;4.17;;;2.40;;
7215;SDS011;3649;48.798;9.798;2022-11-20T15:24:16;2.30;;;2.10;;
7215;SDS011;3649;48.798;9.798;2022-11-20T15:26:44;2.60;;;2.40;;
7215;SDS011;3649;48.798;9.798;2022-11-20T15:29:12;2.60;;;2.07;;
7215;SDS011;3649;48.798;9.798;2022-11-20T15:31:44;4.17;;;2.93;;
7215;SDS011;3649;48.798;9.798;2022-11-20T15:34:12;5.10;;;3.33;;
7215;SDS011;3649;48.798;9.798;2022-11-20T15:36:42;4.47;;;3.27;;
7215;SDS011;3649;48.798;9.798;2022-11-20T15:39:10;3.93;;;3.47;;
7215;SDS011;3649;48.798;9.798;2022-11-20T15:41:37;5.97;;;3.80;;
7215;SDS011;3649;48.798;9.798;2022-11-20T15:44:05;2.87;;;2.57;;
7215;SDS011;3649;48.798;9.798;2022-11-20T15:46:33;2.70;;;2.50;;
7215;SDS011;3649;48.798;9.798;2022-11-20T15:49:04;3.13;;;2.43;;
7215;SDS011;3649;48.798;9.798;2022-11-20T15:54:00;2.90;;;2.70;;
7215;SDS011;3649;48.798;9.798;2022-11-20T15:56:35;3.10;;;2.90;;
7215;SDS011;3649;48.798;9.798;2022-11-20T15:59:01;3.00;;;2.80;;
7215;SDS011;3649;48.798;9.798;2022-11-20T16:01:28;2.50;;;2.40;;
7215;SDS011;3649;48.798;9.798;2022-11-20T16:03:55;3.97;;;2.80;;
7215;SDS011;3649;48.798;9.798;2022-11-20T16:06:22;3.93;;;2.60;;
7215;SDS011;3649;48.798;9.798;2022-11-20T16:08:49;4.43;;;2.10;;
7215;SDS011;3649;48.798;9.798;2022-11-20T16:11:16;5.20;;;2.70;;
7215;SDS011;3649;48.798;9.798;2022-11-20T16:13:43;2.30;;;2.10;;
7215;SDS011;3649;48.798;9.798;2022-11-20T16:16:31;3.77;;;2.20;;
7215;SDS011;3649;48.798;9.798;2022-11-20T16:18:59;3.00;;;2.80;;
7215;SDS011;3649;48.798;9.798;2022-11-20T16:21:27;5.10;;;4.43;;
7215;SDS011;3649;48.798;9.798;2022-11-20T16:23:57;4.57;;;3.30;;
7215;SDS011;3649;48.798;9.798;2022-11-20T16:26:29;4.33;;;3.33;;
7215;SDS011;3649;48.798;9.798;2022-11-20T16:28:56;9.30;;;5.33;;
7215;SDS011;3649;48.798;9.798;2022-11-20T16:31:24;7.83;;;5.13;;
7215;SDS011;3649;48.798;9.798;2022-11-20T16:33:51;4.40;;;3.57;;
7215;SDS011;3649;48.798;9.798;2022-11-20T16:36:20;6.33;;;3.70;;
7215;SDS011;3649;48.798;9.798;2022-11-20T16:38:54;4.13;;;3.07;;
7215;SDS011;3649;48.798;9.798;2022-11-20T16:41:27;4.83;;;4.13;;
7215;SDS011;3649;48.798;9.798;2022-11-20T16:43:57;9.07;;;5.77;;
7215;SDS011;3649;48.798;9.798;2022-11-20T16:46:26;8.97;;;6.90;;
7215;SDS011;3649;48.798;9.798;2022-11-20T16:51:26;6.33;;;4.83;;
7215;SDS011;3649;48.798;9.798;2022-11-20T16:53:54;6.57;;;4.30;;
7215;SDS011;3649;48.798;9.798;2022-11-20T16:56:22;4.20;;;3.80;;
7215;SDS011;3649;48.798;9.798;2022-11-20T16:58:52;4.57;;;3.50;;
7215;SDS011;3649;48.798;9.798;2022-11-20T17:01:20;3.80;;;3.40;;
7215;SDS011;3649;48.798;9.798;2022-11-20T17:03:58;3.60;;;3.30;;
7215;SDS011;3649;48.798;9.798;2022-11-20T17:06:27;6.77;;;3.80;;
7215;SDS011;3649;48.798;9.798;2022-11-20T17:08:55;3.60;;;3.30;;
7215;SDS011;3649;48.798;9.798;2022-11-20T17:11:23;9.23;;;8.00;;
7215;SDS011;3649;48.798;9.798;2022-11-20T17:13:51;3.77;;;2.90;;
7215;SDS011;3649;48.798;9.798;2022-11-20T17:16:21;3.30;;;2.40;;
7215;SDS011;3649;48.798;9.798;2022-11-20T17:18:49;4.83;;;3.43;;
7215;SDS011;3649;48.798;9.798;2022-11-20T17:21:17;6.50;;;3.90;;
7215;SDS011;3649;48.798;9.798;2022-11-20T17:23:44;6.10;;;3.33;;
7215;SDS011;3649;48.798;9.798;2022-11-20T17:26:13;4.20;;;3.83;;
7215;SDS011;3649;48.798;9.798;2022-11-20T17:28:45;5.60;;;4.60;;
7215;SDS011;3649;48.798;9.798;2022-11-20T17:31:13;5.87;;;4.50;;
7215;SDS011;3649;48.798;9.798;2022-11-20T17:33:42;4.73;;;3.83;;